Flight Track Log - Related Links

Times and Time Zones

All times are in EDT time to prevent confusion due to time zone crossing. See the N877PM flight status page for this flight to view local times or setup timezone preferences in your user account.

Time Position Orientation Groundspeed Altitude Reporting Facility
EDT Latitude Longitude Course Direction KTS MPH feet Rate Location/Type
Sun 11:44:48 AM 41.8583 -91.6611 258° West 213 245 4,000  Level Chicago Center
Sun 11:45:50 AM 41.8400 -91.7192 247° West 197 227 7,100 2,806 Climbing Chicago Center
Sun 11:46:52 AM 41.8314 -91.7822 260° West 172 198 9,800 2,806 Climbing Chicago Center
Sun 11:47:54 AM 41.8239 -91.8469 261° West 154 177 12,900 2,516 Climbing Chicago Center
Sun 11:48:56 AM 41.8167 -91.9019 260° West 147 169 15,000 1,951 Climbing Chicago Center
Sun 11:49:57 AM 41.8100 -91.9569 261° West 148 170 16,900 1,610 Climbing Chicago Center
Sun 11:50:00 AM 41.7998 -92.3267 258° West  Level FlightAware Approximate
Sun 11:50:59 AM 41.8033 -92.0161 261° West 158 182 18,300  Level Chicago Center
Sun 11:52:01 AM 41.7944 -92.0794 259° West 169 194 20,000 1,645 Climbing Chicago Center
Sun 11:53:03 AM 41.7867 -92.1436 261° West 172 198 21,700 1,645 Climbing Chicago Center
Sun 11:54:05 AM 41.7792 -92.2075 261° West 173 199 23,400 1,645 Climbing Chicago Center
Sun 11:55:07 AM 41.7678 -92.2900 260° West 188 216 25,100 1,500 Climbing Chicago Center
Sun 11:56:09 AM 41.7581 -92.3664 260° West 205 236 26,500 1,366 Climbing Chicago Center
Sun 11:57:10 AM 41.7489 -92.4447 261° West 210 242 27,900 1,415 Climbing Chicago Center
Sun 11:58:12 AM 41.7381 -92.5225 259° West 212 244 29,400 1,355 Climbing Chicago Center
Sun 11:59:14 AM 41.7283 -92.6025 261° West 213 245 30,700 1,200 Climbing Chicago Center
Sun 11:59:47 AM 41.7217 -92.6517 260° West 215 247 31,300 1,149 Climbing Minneapolis Center
Sun 12:00:48 PM 41.7111 -92.7358 260° West 223 257 32,500 1,073 Climbing Minneapolis Center
Sun 12:01:50 PM 41.6981 -92.8325 260° West 231 266 33,500 726 Climbing Minneapolis Center
Sun 12:02:52 PM 41.6850 -92.9239 259° West 245 282 34,000 244 Climbing Minneapolis Center
Sun 12:03:53 PM 41.6725 -93.0261 261° West 266 306 34,000  Level Minneapolis Center
Sun 12:05:26 PM 41.6472 -93.2025 259° West 303 349 34,000  Level Chicago Center
Sun 12:05:57 PM 41.6422 -93.2475 262° West 300 345 34,000  Level Minneapolis Center
Sun 12:06:58 PM 41.6233 -93.3831 259° West 306 352 34,000  Level Minneapolis Center
Sun 12:08:00 PM 41.6078 -93.4978 260° West 312 359 34,000  Level Minneapolis Center
Sun 12:09:02 PM 41.5931 -93.6097 260° West 312 359 34,000  Level Minneapolis Center
Sun 12:10:03 PM 41.5761 -93.7225 259° West 312 359 34,000  Level Minneapolis Center
Sun 12:11:05 PM 41.5611 -93.8356 260° West 312 359 34,000  Level Minneapolis Center
Sun 12:12:07 PM 41.5450 -93.9489 259° West 312 359 34,000  Level Minneapolis Center
Sun 12:13:08 PM 41.5256 -94.0850 259° West 312 359 34,000  Level Minneapolis Center
Sun 12:14:10 PM 41.5086 -94.1986 259° West 313 360 34,000  Level Minneapolis Center
Sun 12:15:12 PM 41.4922 -94.3058 259° West 313 360 34,000  Level Minneapolis Center
Sun 12:16:13 PM 41.4772 -94.4197 260° West 313 360 34,000  Level Minneapolis Center
Sun 12:17:15 PM 41.4597 -94.5344 259° West 314 361 34,000  Level Minneapolis Center
Sun 12:18:17 PM 41.4392 -94.6722 259° West 316 364 34,000  Level Minneapolis Center
Sun 12:19:18 PM 41.4222 -94.7869 259° West 316 364 34,000  Level Minneapolis Center
Sun 12:20:20 PM 41.4050 -94.9000 259° West 315 362 34,000  Level Minneapolis Center
Sun 12:21:21 PM 41.3875 -95.0133 258° West 315 362 34,000  Level Minneapolis Center
Sun 12:22:23 PM 41.3700 -95.1261 258° West 314 361 34,000  Level Minneapolis Center
Sun 12:23:25 PM 41.3525 -95.2389 258° West 314 361 34,000  Level Minneapolis Center
Sun 12:24:26 PM 41.3342 -95.3536 258° West 315 362 34,000  Level Minneapolis Center
Sun 12:25:28 PM 41.3167 -95.4669 258° West 315 362 34,000  Level Minneapolis Center
Sun 12:26:30 PM 41.2944 -95.6042 258° West 315 362 34,000  Level Minneapolis Center
Sun 12:27:32 PM 41.2772 -95.7208 259° West 315 362 34,000  Level Minneapolis Center
Sun 12:28:33 PM 41.2575 -95.8356 257° West 316 364 34,000  Level Minneapolis Center
Sun 12:29:35 PM 41.2403 -95.9481 259° West 315 362 34,000  Level Minneapolis Center
Sun 12:30:37 PM 41.2217 -96.0611 258° West 314 361 34,000  Level Minneapolis Center
Sun 12:31:38 PM 41.2033 -96.1736 258° West 314 361 34,000  Level Minneapolis Center
Sun 12:32:40 PM 41.1847 -96.2861 258° West 312 359 34,000  Level Minneapolis Center
Sun 12:33:42 PM 41.1661 -96.4031 258° West 311 358 34,000  Level Minneapolis Center
Sun 12:34:44 PM 41.1472 -96.5161 258° West 312 359 34,000  Level Minneapolis Center
Sun 12:35:46 PM 41.1267 -96.6294 256° West 313 360 34,000  Level Minneapolis Center
Sun 12:36:47 PM 41.1047 -96.7647 258° West 313 360 34,000  Level Minneapolis Center
Sun 12:37:49 PM 41.0847 -96.8764 257° West 313 360 34,000 -871 Level Minneapolis Center
Sun 12:38:51 PM 41.0664 -96.9892 258° West 313 360 32,200 -1,742 Descending Minneapolis Center
Sun 12:39:53 PM 41.0475 -97.0986 257° West 309 356 30,400 -1,645 Descending Minneapolis Center
Sun 12:40:55 PM 41.0272 -97.2083 256° West 308 354 28,800 -1,645 Descending Minneapolis Center
Sun 12:41:57 PM 41.0075 -97.3258 257° West 320 368 27,000 -1,902 Descending Minneapolis Center
Sun 12:42:58 PM 40.9842 -97.4658 258° West 331 381 24,900 -1,902 Descending Minneapolis Center
Sun 12:44:00 PM 40.9625 -97.5861 257° West 332 382 23,100 -1,742 Descending Minneapolis Center
Sun 12:45:02 PM 40.9414 -97.7117 257° West 343 395 21,300 -1,790 Descending Minneapolis Center
Sun 12:46:04 PM 40.9169 -97.8386 256° West 351 404 19,400 -1,790 Descending Minneapolis Center
Sun 12:47:06 PM 40.8950 -97.9642 257° West 351 404 17,600 -1,839 Descending Minneapolis Center
Sun 12:48:08 PM 40.8739 -98.0856 257° West 344 396 15,600 -1,887 Descending Minneapolis Center
Sun 12:49:10 PM 40.8572 -98.2031 259° West 331 381 13,700 -1,984 Descending Minneapolis Center
Sun 12:50:12 PM 40.8353 -98.3381 258° West 318 366 11,500 -1,935 Descending Minneapolis Center
Sun 12:51:14 PM 40.8189 -98.4392 258° West 292 336 9,700 -1,694 Descending Minneapolis Center
Sun 12:52:16 PM 40.8039 -98.5322 258° West 275 316 8,000 -1,597 Descending Minneapolis Center
Sun 12:53:18 PM 40.7892 -98.6261 258° West 266 306 6,400 -1,403 Descending Minneapolis Center
Sun 12:54:20 PM 40.7742 -98.7156 258° West 257 296 5,100 -1,258 Descending Minneapolis Center
Sun 12:56:00 PM 40.7396 -98.8771 217° Southwest  Level FlightAware Approximate
Sun 01:03:00 PM 40.7167 -99.0000 270° West  Level FlightAware Approximate

Login

Don't have an account? Register now (free) for customized features, flight alerts, and more!